Aérodrome :







RETROUVEZ-NOUS SUR...

 
LOGIN :

S'inscrire | Disclaimer

   EN    FR    IT 

 









Légende :    VFR   VFR Marginal   IFR   IFR Intensif   IFR Très Intensif
Visi : 
Plafond : 
>= 8 km
>= 3000ft
5 à 8 km
1000 à 3000 ft
1500m à 5 km
500 à 1000 ft
800 à 1500m
200 à 500 ft
< 800m
< 200 ft
Symboles :   Orages  Brouillard  Fortes neiges  Fortes précipitations  Vent > 20 kt






- Altitude de l'aérodrome : 165 ft
- Code IATA : SFJ


BGSF - KangerLussuaq

DERNIER METAR :
  • 210450Z AUTO 07009KT 9999NDV SCT110/// BKN130/// M09/M15 Q0999

METARs EXPIRÉS :
  • 210350Z AUTO 05008KT 030V090 9999NDV BKN130/// OVC150/// M08/M15 Q0999
  • 210250Z AUTO 08014KT 050V110 9999NDV SCT120/// BKN150/// M08/M15 Q1000

TAF TAF BGSF
Valide du 21 à 06h jusqu'au 22 à 00h UTC


210503Z 2106/2124 07010KT 9999 BKN120



MET'MAP, la Météo Aéronautique d'un coup d'oeil ! - Copyright ORBIFLY Décembre 2007 - Disclaimer

ORBIFLY MET'MAP TEAM :

Programmation & Développement : Alexandra Zaïnal
Sur une idée originale de : Baudouin d'Aumeries
Assistance à la programmation : Marc-Olivier Méhu
Soutien technique & logistique : Manuel Goepfert

Contact : metmap@orbifly.com




SOURCES & CREDITS :

   NOAA